sensor_id;sensor_type;location;lat;lon;timestamp;P1;durP1;ratioP1;P2;durP2;ratioP2
72895;SDS011;61036;53.224;6.554;2023-04-01T00:02:17;11.47;;;8.13;;
72895;SDS011;61036;53.224;6.554;2023-04-01T00:04:43;12.53;;;8.57;;
72895;SDS011;61036;53.224;6.554;2023-04-01T00:07:09;10.30;;;7.83;;
72895;SDS011;61036;53.224;6.554;2023-04-01T00:09:35;12.47;;;8.27;;
72895;SDS011;61036;53.224;6.554;2023-04-01T00:12:01;11.00;;;7.50;;
72895;SDS011;61036;53.224;6.554;2023-04-01T00:14:27;8.57;;;6.97;;
72895;SDS011;61036;53.224;6.554;2023-04-01T00:16:53;10.27;;;7.27;;
72895;SDS011;61036;53.224;6.554;2023-04-01T00:19:19;11.43;;;7.67;;
72895;SDS011;61036;53.224;6.554;2023-04-01T00:21:44;10.63;;;7.83;;
72895;SDS011;61036;53.224;6.554;2023-04-01T00:24:10;9.47;;;7.63;;
72895;SDS011;61036;53.224;6.554;2023-04-01T00:26:35;8.13;;;6.77;;
72895;SDS011;61036;53.224;6.554;2023-04-01T00:29:01;9.33;;;6.83;;
72895;SDS011;61036;53.224;6.554;2023-04-01T00:31:27;10.03;;;7.03;;
72895;SDS011;61036;53.224;6.554;2023-04-01T00:33:56;9.00;;;7.03;;
72895;SDS011;61036;53.224;6.554;2023-04-01T00:36:22;11.47;;;7.63;;
72895;SDS011;61036;53.224;6.554;2023-04-01T00:38:48;10.23;;;7.33;;
72895;SDS011;61036;53.224;6.554;2023-04-01T00:41:14;9.90;;;7.53;;
72895;SDS011;61036;53.224;6.554;2023-04-01T00:43:42;10.37;;;7.70;;
72895;SDS011;61036;53.224;6.554;2023-04-01T00:46:10;9.07;;;7.33;;
72895;SDS011;61036;53.224;6.554;2023-04-01T00:48:38;9.80;;;7.07;;
72895;SDS011;61036;53.224;6.554;2023-04-01T00:51:08;10.83;;;7.50;;
72895;SDS011;61036;53.224;6.554;2023-04-01T00:53:38;9.30;;;7.23;;
72895;SDS011;61036;53.224;6.554;2023-04-01T00:56:18;9.43;;;6.90;;
72895;SDS011;61036;53.224;6.554;2023-04-01T00:58:51;8.50;;;6.93;;
72895;SDS011;61036;53.224;6.554;2023-04-01T01:01:24;10.50;;;7.27;;
72895;SDS011;61036;53.224;6.554;2023-04-01T01:03:50;10.37;;;7.13;;
72895;SDS011;61036;53.224;6.554;2023-04-01T01:15:28;10.10;;;7.73;;
72895;SDS011;61036;53.224;6.554;2023-04-01T01:18:18;10.77;;;7.60;;
72895;SDS011;61036;53.224;6.554;2023-04-01T01:27:06;11.10;;;7.20;;
72895;SDS011;61036;53.224;6.554;2023-04-01T01:35:22;10.80;;;8.43;;
72895;SDS011;61036;53.224;6.554;2023-04-01T01:37:58;10.97;;;8.53;;
72895;SDS011;61036;53.224;6.554;2023-04-01T01:40:33;11.30;;;7.77;;
72895;SDS011;61036;53.224;6.554;2023-04-01T01:43:05;11.47;;;8.00;;
72895;SDS011;61036;53.224;6.554;2023-04-01T01:45:35;9.80;;;7.67;;
72895;SDS011;61036;53.224;6.554;2023-04-01T01:48:05;10.13;;;7.53;;
72895;SDS011;61036;53.224;6.554;2023-04-01T01:50:34;9.23;;;7.57;;
72895;SDS011;61036;53.224;6.554;2023-04-01T01:53:01;11.03;;;7.83;;
72895;SDS011;61036;53.224;6.554;2023-04-01T01:55:30;11.90;;;8.10;;
72895;SDS011;61036;53.224;6.554;2023-04-01T01:58:00;12.77;;;8.50;;
72895;SDS011;61036;53.224;6.554;2023-04-01T02:00:31;10.67;;;8.40;;
72895;SDS011;61036;53.224;6.554;2023-04-01T02:02:58;12.47;;;8.80;;
72895;SDS011;61036;53.224;6.554;2023-04-01T02:05:25;11.23;;;7.87;;
72895;SDS011;61036;53.224;6.554;2023-04-01T02:08:13;11.63;;;8.30;;
72895;SDS011;61036;53.224;6.554;2023-04-01T02:10:42;13.70;;;8.17;;
72895;SDS011;61036;53.224;6.554;2023-04-01T02:13:17;12.27;;;8.23;;
72895;SDS011;61036;53.224;6.554;2023-04-01T02:15:49;11.30;;;9.03;;
72895;SDS011;61036;53.224;6.554;2023-04-01T02:18:17;12.60;;;8.43;;
72895;SDS011;61036;53.224;6.554;2023-04-01T02:20:45;12.43;;;8.90;;
72895;SDS011;61036;53.224;6.554;2023-04-01T02:23:11;10.27;;;8.27;;
72895;SDS011;61036;53.224;6.554;2023-04-01T02:25:38;11.90;;;9.17;;
72895;SDS011;61036;53.224;6.554;2023-04-01T02:28:06;12.43;;;8.30;;
72895;SDS011;61036;53.224;6.554;2023-04-01T02:30:34;10.37;;;7.80;;
72895;SDS011;61036;53.224;6.554;2023-04-01T02:33:03;12.13;;;9.20;;
72895;SDS011;61036;53.224;6.554;2023-04-01T02:35:30;12.03;;;8.13;;
72895;SDS011;61036;53.224;6.554;2023-04-01T02:37:59;10.83;;;8.07;;
72895;SDS011;61036;53.224;6.554;2023-04-01T02:40:25;11.40;;;7.97;;
72895;SDS011;61036;53.224;6.554;2023-04-01T02:42:51;10.70;;;7.83;;
72895;SDS011;61036;53.224;6.554;2023-04-01T02:45:17;11.17;;;8.10;;
72895;SDS011;61036;53.224;6.554;2023-04-01T02:47:42;11.90;;;8.50;;
72895;SDS011;61036;53.224;6.554;2023-04-01T02:50:08;10.70;;;7.53;;
72895;SDS011;61036;53.224;6.554;2023-04-01T02:52:34;11.10;;;8.43;;
72895;SDS011;61036;53.224;6.554;2023-04-01T02:55:00;11.60;;;8.57;;
72895;SDS011;61036;53.224;6.554;2023-04-01T02:57:27;11.87;;;8.93;;
72895;SDS011;61036;53.224;6.554;2023-04-01T02:59:52;12.73;;;9.10;;
72895;SDS011;61036;53.224;6.554;2023-04-01T03:02:18;12.20;;;8.33;;
72895;SDS011;61036;53.224;6.554;2023-04-01T03:04:43;10.63;;;8.20;;
72895;SDS011;61036;53.224;6.554;2023-04-01T03:07:09;12.03;;;9.13;;
72895;SDS011;61036;53.224;6.554;2023-04-01T03:09:35;12.97;;;9.10;;
72895;SDS011;61036;53.224;6.554;2023-04-01T03:12:05;13.90;;;9.87;;
72895;SDS011;61036;53.224;6.554;2023-04-01T03:14:37;13.83;;;10.30;;
72895;SDS011;61036;53.224;6.554;2023-04-01T03:17:02;15.20;;;9.80;;
72895;SDS011;61036;53.224;6.554;2023-04-01T03:19:28;15.57;;;11.47;;
72895;SDS011;61036;53.224;6.554;2023-04-01T03:21:53;14.67;;;10.60;;
72895;SDS011;61036;53.224;6.554;2023-04-01T03:24:19;14.90;;;11.33;;
72895;SDS011;61036;53.224;6.554;2023-04-01T03:26:46;15.97;;;11.30;;
72895;SDS011;61036;53.224;6.554;2023-04-01T03:29:11;18.47;;;12.37;;
72895;SDS011;61036;53.224;6.554;2023-04-01T03:31:37;16.43;;;12.27;;
72895;SDS011;61036;53.224;6.554;2023-04-01T03:34:02;15.27;;;11.63;;
72895;SDS011;61036;53.224;6.554;2023-04-01T03:36:28;17.97;;;13.37;;
72895;SDS011;61036;53.224;6.554;2023-04-01T03:38:54;17.07;;;13.07;;
72895;SDS011;61036;53.224;6.554;2023-04-01T03:41:27;16.80;;;11.97;;
72895;SDS011;61036;53.224;6.554;2023-04-01T03:43:53;17.90;;;13.07;;
72895;SDS011;61036;53.224;6.554;2023-04-01T03:46:19;16.60;;;12.07;;
72895;SDS011;61036;53.224;6.554;2023-04-01T03:48:46;15.83;;;11.97;;
72895;SDS011;61036;53.224;6.554;2023-04-01T03:51:11;18.03;;;12.13;;
72895;SDS011;61036;53.224;6.554;2023-04-01T03:53:37;16.80;;;12.20;;
72895;SDS011;61036;53.224;6.554;2023-04-01T03:56:05;14.97;;;12.30;;
72895;SDS011;61036;53.224;6.554;2023-04-01T03:58:34;17.47;;;11.63;;
72895;SDS011;61036;53.224;6.554;2023-04-01T04:01:01;16.70;;;12.33;;
72895;SDS011;61036;53.224;6.554;2023-04-01T04:03:26;14.50;;;11.33;;
72895;SDS011;61036;53.224;6.554;2023-04-01T04:05:52;15.90;;;12.20;;
72895;SDS011;61036;53.224;6.554;2023-04-01T04:08:17;18.10;;;12.43;;
72895;SDS011;61036;53.224;6.554;2023-04-01T04:10:43;16.93;;;12.53;;
72895;SDS011;61036;53.224;6.554;2023-04-01T04:13:09;17.93;;;12.60;;
72895;SDS011;61036;53.224;6.554;2023-04-01T04:15:41;19.47;;;12.93;;
72895;SDS011;61036;53.224;6.554;2023-04-01T04:18:06;17.33;;;12.87;;
72895;SDS011;61036;53.224;6.554;2023-04-01T04:20:32;19.83;;;13.37;;
72895;SDS011;61036;53.224;6.554;2023-04-01T04:22:59;16.57;;;11.80;;
72895;SDS011;61036;53.224;6.554;2023-04-01T04:25:25;18.47;;;13.03;;
72895;SDS011;61036;53.224;6.554;2023-04-01T04:27:51;18.07;;;12.77;;
72895;SDS011;61036;53.224;6.554;2023-04-01T04:30:16;16.40;;;12.40;;
72895;SDS011;61036;53.224;6.554;2023-04-01T04:32:42;18.90;;;13.73;;
72895;SDS011;61036;53.224;6.554;2023-04-01T04:35:09;15.90;;;11.60;;
72895;SDS011;61036;53.224;6.554;2023-04-01T04:37:35;17.30;;;13.00;;
72895;SDS011;61036;53.224;6.554;2023-04-01T04:40:00;15.90;;;12.73;;
72895;SDS011;61036;53.224;6.554;2023-04-01T04:42:26;16.93;;;12.87;;
72895;SDS011;61036;53.224;6.554;2023-04-01T04:44:58;17.87;;;13.90;;
72895;SDS011;61036;53.224;6.554;2023-04-01T04:47:24;16.63;;;12.87;;
72895;SDS011;61036;53.224;6.554;2023-04-01T04:49:50;18.87;;;14.03;;
72895;SDS011;61036;53.224;6.554;2023-04-01T04:52:16;19.20;;;13.90;;
72895;SDS011;61036;53.224;6.554;2023-04-01T04:54:42;19.47;;;14.07;;
72895;SDS011;61036;53.224;6.554;2023-04-01T04:57:07;15.70;;;12.60;;
72895;SDS011;61036;53.224;6.554;2023-04-01T04:59:43;16.83;;;12.63;;
72895;SDS011;61036;53.224;6.554;2023-04-01T05:02:16;16.00;;;11.87;;
72895;SDS011;61036;53.224;6.554;2023-04-01T05:04:41;17.07;;;12.83;;
72895;SDS011;61036;53.224;6.554;2023-04-01T05:07:09;17.63;;;12.80;;
72895;SDS011;61036;53.224;6.554;2023-04-01T05:09:34;16.53;;;11.97;;
72895;SDS011;61036;53.224;6.554;2023-04-01T05:12:01;18.87;;;13.60;;
72895;SDS011;61036;53.224;6.554;2023-04-01T05:14:34;21.50;;;14.70;;
72895;SDS011;61036;53.224;6.554;2023-04-01T05:17:10;17.67;;;13.80;;
72895;SDS011;61036;53.224;6.554;2023-04-01T05:19:36;20.10;;;15.13;;
72895;SDS011;61036;53.224;6.554;2023-04-01T05:22:02;17.93;;;14.03;;
72895;SDS011;61036;53.224;6.554;2023-04-01T05:24:29;19.50;;;14.43;;
72895;SDS011;61036;53.224;6.554;2023-04-01T05:26:55;16.77;;;13.43;;
72895;SDS011;61036;53.224;6.554;2023-04-01T05:29:23;19.03;;;13.87;;
72895;SDS011;61036;53.224;6.554;2023-04-01T05:31:56;19.23;;;14.77;;
72895;SDS011;61036;53.224;6.554;2023-04-01T05:34:21;20.03;;;14.70;;
72895;SDS011;61036;53.224;6.554;2023-04-01T05:36:47;19.00;;;14.83;;
72895;SDS011;61036;53.224;6.554;2023-04-01T05:39:16;18.37;;;14.47;;
72895;SDS011;61036;53.224;6.554;2023-04-01T05:41:42;16.93;;;13.27;;
72895;SDS011;61036;53.224;6.554;2023-04-01T05:44:10;21.77;;;15.70;;
72895;SDS011;61036;53.224;6.554;2023-04-01T05:46:39;17.97;;;13.37;;
72895;SDS011;61036;53.224;6.554;2023-04-01T05:49:14;18.63;;;14.03;;
72895;SDS011;61036;53.224;6.554;2023-04-01T05:51:40;17.90;;;13.27;;
72895;SDS011;61036;53.224;6.554;2023-04-01T05:54:05;17.23;;;13.07;;
72895;SDS011;61036;53.224;6.554;2023-04-01T05:56:31;17.37;;;13.10;;
72895;SDS011;61036;53.224;6.554;2023-04-01T05:58:58;18.20;;;13.53;;
72895;SDS011;61036;53.224;6.554;2023-04-01T06:01:24;19.43;;;13.00;;
72895;SDS011;61036;53.224;6.554;2023-04-01T06:03:49;16.90;;;12.83;;
72895;SDS011;61036;53.224;6.554;2023-04-01T06:06:16;17.23;;;12.53;;
72895;SDS011;61036;53.224;6.554;2023-04-01T06:08:48;16.83;;;12.83;;
72895;SDS011;61036;53.224;6.554;2023-04-01T06:48:52;17.80;;;14.23;;
72895;SDS011;61036;53.224;6.554;2023-04-01T06:52:05;20.50;;;15.20;;
72895;SDS011;61036;53.224;6.554;2023-04-01T06:58:24;22.10;;;16.07;;
72895;SDS011;61036;53.224;6.554;2023-04-01T07:00:54;18.70;;;14.90;;
72895;SDS011;61036;53.224;6.554;2023-04-01T07:03:36;21.13;;;17.03;;
72895;SDS011;61036;53.224;6.554;2023-04-01T07:06:13;20.50;;;15.47;;
72895;SDS011;61036;53.224;6.554;2023-04-01T07:08:53;24.17;;;17.73;;
72895;SDS011;61036;53.224;6.554;2023-04-01T07:11:24;21.60;;;16.70;;
72895;SDS011;61036;53.224;6.554;2023-04-01T07:14:19;22.17;;;18.00;;
72895;SDS011;61036;53.224;6.554;2023-04-01T07:17:04;23.17;;;17.03;;
72895;SDS011;61036;53.224;6.554;2023-04-01T07:22:27;24.13;;;17.50;;
72895;SDS011;61036;53.224;6.554;2023-04-01T07:25:16;24.67;;;17.87;;
72895;SDS011;61036;53.224;6.554;2023-04-01T07:28:13;21.23;;;17.00;;
72895;SDS011;61036;53.224;6.554;2023-04-01T07:39:04;21.47;;;15.67;;
72895;SDS011;61036;53.224;6.554;2023-04-01T07:44:47;18.83;;;15.10;;
72895;SDS011;61036;53.224;6.554;2023-04-01T07:47:29;18.83;;;14.77;;
72895;SDS011;61036;53.224;6.554;2023-04-01T07:50:08;20.63;;;15.33;;
72895;SDS011;61036;53.224;6.554;2023-04-01T07:52:55;20.70;;;16.30;;
72895;SDS011;61036;53.224;6.554;2023-04-01T07:55:49;21.20;;;16.77;;
72895;SDS011;61036;53.224;6.554;2023-04-01T08:10:32;18.73;;;14.37;;
72895;SDS011;61036;53.224;6.554;2023-04-01T08:17:17;17.10;;;12.93;;
72895;SDS011;61036;53.224;6.554;2023-04-01T08:20:03;16.27;;;12.67;;
72895;SDS011;61036;53.224;6.554;2023-04-01T08:22:36;15.73;;;11.50;;
72895;SDS011;61036;53.224;6.554;2023-04-01T08:25:22;15.23;;;11.70;;
72895;SDS011;61036;53.224;6.554;2023-04-01T08:30:36;18.30;;;12.73;;
72895;SDS011;61036;53.224;6.554;2023-04-01T08:35:54;19.00;;;12.50;;
72895;SDS011;61036;53.224;6.554;2023-04-01T08:38:32;17.80;;;13.87;;
72895;SDS011;61036;53.224;6.554;2023-04-01T08:41:42;19.50;;;14.37;;
72895;SDS011;61036;53.224;6.554;2023-04-01T08:44:24;17.30;;;13.00;;
72895;SDS011;61036;53.224;6.554;2023-04-01T08:58:37;10.27;;;6.27;;
72895;SDS011;61036;53.224;6.554;2023-04-01T09:01:39;9.63;;;6.23;;
72895;SDS011;61036;53.224;6.554;2023-04-01T09:12:49;7.90;;;5.40;;
72895;SDS011;61036;53.224;6.554;2023-04-01T09:15:35;7.80;;;5.47;;
72895;SDS011;61036;53.224;6.554;2023-04-01T09:26:44;5.70;;;3.70;;
72895;SDS011;61036;53.224;6.554;2023-04-01T09:44:02;5.23;;;3.00;;
72895;SDS011;61036;53.224;6.554;2023-04-01T09:54:52;6.00;;;3.10;;
72895;SDS011;61036;53.224;6.554;2023-04-01T09:58:00;5.80;;;3.20;;
72895;SDS011;61036;53.224;6.554;2023-04-01T10:45:50;4.37;;;2.33;;
72895;SDS011;61036;53.224;6.554;2023-04-01T11:00:55;4.20;;;2.40;;
72895;SDS011;61036;53.224;6.554;2023-04-01T11:20:35;5.67;;;3.30;;
72895;SDS011;61036;53.224;6.554;2023-04-01T11:26:08;4.93;;;2.70;;
72895;SDS011;61036;53.224;6.554;2023-04-01T11:31:52;5.40;;;3.40;;
72895;SDS011;61036;53.224;6.554;2023-04-01T11:37:21;4.97;;;2.50;;
72895;SDS011;61036;53.224;6.554;2023-04-01T11:43:25;4.70;;;2.90;;
72895;SDS011;61036;53.224;6.554;2023-04-01T11:46:19;5.60;;;2.40;;
72895;SDS011;61036;53.224;6.554;2023-04-01T12:06:14;3.40;;;2.00;;
72895;SDS011;61036;53.224;6.554;2023-04-01T12:09:04;4.13;;;2.43;;
72895;SDS011;61036;53.224;6.554;2023-04-01T12:11:59;3.43;;;2.13;;
72895;SDS011;61036;53.224;6.554;2023-04-01T12:25:35;3.80;;;2.00;;
72895;SDS011;61036;53.224;6.554;2023-04-01T12:30:59;3.63;;;2.20;;
72895;SDS011;61036;53.224;6.554;2023-04-01T12:34:39;3.97;;;1.97;;
72895;SDS011;61036;53.224;6.554;2023-04-01T12:37:02;3.90;;;2.00;;
72895;SDS011;61036;53.224;6.554;2023-04-01T12:42:33;3.70;;;1.80;;
72895;SDS011;61036;53.224;6.554;2023-04-01T12:50:57;4.30;;;2.40;;
72895;SDS011;61036;53.224;6.554;2023-04-01T12:53:38;5.10;;;2.40;;
72895;SDS011;61036;53.224;6.554;2023-04-01T13:02:40;3.30;;;2.20;;
72895;SDS011;61036;53.224;6.554;2023-04-01T13:08:41;3.60;;;1.93;;
72895;SDS011;61036;53.224;6.554;2023-04-01T13:27:50;4.60;;;2.20;;
72895;SDS011;61036;53.224;6.554;2023-04-01T13:50:24;4.07;;;2.07;;
72895;SDS011;61036;53.224;6.554;2023-04-01T13:55:53;3.17;;;1.70;;
72895;SDS011;61036;53.224;6.554;2023-04-01T13:58:44;3.60;;;1.70;;
72895;SDS011;61036;53.224;6.554;2023-04-01T14:04:35;3.07;;;1.57;;
72895;SDS011;61036;53.224;6.554;2023-04-01T14:07:42;3.00;;;1.60;;
72895;SDS011;61036;53.224;6.554;2023-04-01T14:13:23;3.00;;;1.60;;
72895;SDS011;61036;53.224;6.554;2023-04-01T14:16:22;3.40;;;1.70;;
72895;SDS011;61036;53.224;6.554;2023-04-01T14:19:03;4.37;;;1.63;;
72895;SDS011;61036;53.224;6.554;2023-04-01T14:22:04;3.87;;;1.57;;
72895;SDS011;61036;53.224;6.554;2023-04-01T14:32:51;5.47;;;1.67;;
72895;SDS011;61036;53.224;6.554;2023-04-01T14:35:41;2.90;;;1.60;;
72895;SDS011;61036;53.224;6.554;2023-04-01T14:39:00;2.70;;;1.50;;
72895;SDS011;61036;53.224;6.554;2023-04-01T14:42:13;4.07;;;2.03;;
72895;SDS011;61036;53.224;6.554;2023-04-01T14:47:43;3.93;;;1.70;;
72895;SDS011;61036;53.224;6.554;2023-04-01T14:50:14;4.83;;;2.27;;
72895;SDS011;61036;53.224;6.554;2023-04-01T14:52:46;4.37;;;1.97;;
72895;SDS011;61036;53.224;6.554;2023-04-01T14:55:34;4.00;;;2.20;;
72895;SDS011;61036;53.224;6.554;2023-04-01T15:05:54;3.57;;;2.17;;
72895;SDS011;61036;53.224;6.554;2023-04-01T15:08:32;3.90;;;2.10;;
72895;SDS011;61036;53.224;6.554;2023-04-01T15:11:22;5.00;;;2.57;;
72895;SDS011;61036;53.224;6.554;2023-04-01T15:22:27;5.17;;;2.50;;
72895;SDS011;61036;53.224;6.554;2023-04-01T15:27:34;5.90;;;3.10;;
72895;SDS011;61036;53.224;6.554;2023-04-01T15:36:04;5.50;;;3.00;;
72895;SDS011;61036;53.224;6.554;2023-04-01T15:38:49;7.13;;;3.27;;
72895;SDS011;61036;53.224;6.554;2023-04-01T15:46:55;6.00;;;3.67;;
72895;SDS011;61036;53.224;6.554;2023-04-01T15:54:27;6.17;;;4.03;;
72895;SDS011;61036;53.224;6.554;2023-04-01T16:02:46;7.90;;;4.17;;
72895;SDS011;61036;53.224;6.554;2023-04-01T16:13:04;9.30;;;4.90;;
72895;SDS011;61036;53.224;6.554;2023-04-01T16:21:37;8.00;;;4.53;;
72895;SDS011;61036;53.224;6.554;2023-04-01T16:24:14;9.63;;;4.57;;
72895;SDS011;61036;53.224;6.554;2023-04-01T16:43:28;10.80;;;5.47;;
72895;SDS011;61036;53.224;6.554;2023-04-01T16:51:53;10.27;;;5.00;;
72895;SDS011;61036;53.224;6.554;2023-04-01T16:59:38;8.70;;;5.13;;
72895;SDS011;61036;53.224;6.554;2023-04-01T17:02:17;9.67;;;5.30;;
72895;SDS011;61036;53.224;6.554;2023-04-01T17:04:49;8.13;;;4.97;;
72895;SDS011;61036;53.224;6.554;2023-04-01T17:15:36;9.63;;;4.97;;
72895;SDS011;61036;53.224;6.554;2023-04-01T17:18:15;9.03;;;5.73;;
72895;SDS011;61036;53.224;6.554;2023-04-01T17:20:50;8.30;;;5.23;;
72895;SDS011;61036;53.224;6.554;2023-04-01T17:23:59;9.17;;;5.20;;
72895;SDS011;61036;53.224;6.554;2023-04-01T17:26:42;9.43;;;6.00;;
72895;SDS011;61036;53.224;6.554;2023-04-01T17:32:07;8.77;;;5.20;;
72895;SDS011;61036;53.224;6.554;2023-04-01T17:43:44;11.63;;;5.73;;
72895;SDS011;61036;53.224;6.554;2023-04-01T17:46:38;12.17;;;6.03;;
72895;SDS011;61036;53.224;6.554;2023-04-01T17:54:58;9.80;;;6.13;;
72895;SDS011;61036;53.224;6.554;2023-04-01T18:00:50;11.30;;;5.67;;
72895;SDS011;61036;53.224;6.554;2023-04-01T18:06:20;10.53;;;5.77;;
72895;SDS011;61036;53.224;6.554;2023-04-01T18:12:19;10.17;;;5.70;;
72895;SDS011;61036;53.224;6.554;2023-04-01T18:20:32;12.17;;;5.83;;
72895;SDS011;61036;53.224;6.554;2023-04-01T18:25:56;12.67;;;6.23;;
72895;SDS011;61036;53.224;6.554;2023-04-01T18:31:04;10.27;;;5.80;;
72895;SDS011;61036;53.224;6.554;2023-04-01T18:36:25;10.23;;;6.10;;
72895;SDS011;61036;53.224;6.554;2023-04-01T18:38:55;11.87;;;5.93;;
72895;SDS011;61036;53.224;6.554;2023-04-01T18:44:51;11.30;;;6.00;;
72895;SDS011;61036;53.224;6.554;2023-04-01T18:52:28;10.70;;;6.33;;
72895;SDS011;61036;53.224;6.554;2023-04-01T18:57:42;11.43;;;6.20;;
72895;SDS011;61036;53.224;6.554;2023-04-01T19:00:14;12.57;;;6.03;;
72895;SDS011;61036;53.224;6.554;2023-04-01T19:03:10;11.13;;;6.67;;
72895;SDS011;61036;53.224;6.554;2023-04-01T19:05:56;11.67;;;5.73;;
72895;SDS011;61036;53.224;6.554;2023-04-01T19:08:33;13.73;;;6.30;;
72895;SDS011;61036;53.224;6.554;2023-04-01T19:11:13;10.63;;;6.10;;
72895;SDS011;61036;53.224;6.554;2023-04-01T19:17:15;13.03;;;6.33;;
72895;SDS011;61036;53.224;6.554;2023-04-01T19:19:46;11.03;;;6.33;;
72895;SDS011;61036;53.224;6.554;2023-04-01T19:28:15;10.97;;;6.13;;
72895;SDS011;61036;53.224;6.554;2023-04-01T19:30:51;13.83;;;6.00;;
72895;SDS011;61036;53.224;6.554;2023-04-01T19:46:16;13.30;;;6.93;;
72895;SDS011;61036;53.224;6.554;2023-04-01T19:51:25;17.33;;;5.90;;
72895;SDS011;61036;53.224;6.554;2023-04-01T20:11:11;12.83;;;5.60;;
72895;SDS011;61036;53.224;6.554;2023-04-01T20:16:16;11.10;;;5.47;;
72895;SDS011;61036;53.224;6.554;2023-04-01T20:21:24;11.73;;;4.83;;
72895;SDS011;61036;53.224;6.554;2023-04-01T20:23:54;10.43;;;5.50;;
72895;SDS011;61036;53.224;6.554;2023-04-01T20:26:25;11.23;;;5.47;;
72895;SDS011;61036;53.224;6.554;2023-04-01T20:35:08;9.80;;;5.20;;
72895;SDS011;61036;53.224;6.554;2023-04-01T20:46:37;6.80;;;4.57;;
72895;SDS011;61036;53.224;6.554;2023-04-01T20:54:44;11.03;;;4.80;;
72895;SDS011;61036;53.224;6.554;2023-04-01T20:57:42;7.30;;;4.17;;
72895;SDS011;61036;53.224;6.554;2023-04-01T21:00:24;8.33;;;4.37;;
72895;SDS011;61036;53.224;6.554;2023-04-01T21:03:33;10.67;;;4.90;;
72895;SDS011;61036;53.224;6.554;2023-04-01T21:06:13;12.63;;;5.23;;
72895;SDS011;61036;53.224;6.554;2023-04-01T21:11:31;8.20;;;4.40;;
72895;SDS011;61036;53.224;6.554;2023-04-01T21:14:51;7.93;;;4.30;;
72895;SDS011;61036;53.224;6.554;2023-04-01T21:19:51;9.87;;;4.80;;
72895;SDS011;61036;53.224;6.554;2023-04-01T21:28:03;7.97;;;4.33;;
72895;SDS011;61036;53.224;6.554;2023-04-01T21:36:20;9.30;;;4.30;;
72895;SDS011;61036;53.224;6.554;2023-04-01T21:44:34;10.63;;;4.50;;
72895;SDS011;61036;53.224;6.554;2023-04-01T21:50:00;9.67;;;4.93;;
72895;SDS011;61036;53.224;6.554;2023-04-01T22:03:31;9.67;;;4.50;;
72895;SDS011;61036;53.224;6.554;2023-04-01T22:08:59;9.73;;;4.13;;
72895;SDS011;61036;53.224;6.554;2023-04-01T22:14:20;8.47;;;4.40;;
72895;SDS011;61036;53.224;6.554;2023-04-01T22:16:48;9.17;;;4.57;;
72895;SDS011;61036;53.224;6.554;2023-04-01T22:19:29;9.43;;;4.07;;
72895;SDS011;61036;53.224;6.554;2023-04-01T22:24:56;12.83;;;4.87;;
72895;SDS011;61036;53.224;6.554;2023-04-01T22:27:35;12.03;;;5.03;;
72895;SDS011;61036;53.224;6.554;2023-04-01T22:30:16;10.90;;;5.10;;
72895;SDS011;61036;53.224;6.554;2023-04-01T22:32:50;9.00;;;4.13;;
72895;SDS011;61036;53.224;6.554;2023-04-01T22:38:13;7.57;;;3.73;;
72895;SDS011;61036;53.224;6.554;2023-04-01T22:43:38;10.63;;;3.97;;
72895;SDS011;61036;53.224;6.554;2023-04-01T22:48:54;8.30;;;3.40;;
72895;SDS011;61036;53.224;6.554;2023-04-01T22:59:51;9.87;;;3.47;;
72895;SDS011;61036;53.224;6.554;2023-04-01T23:02:27;7.80;;;3.93;;
72895;SDS011;61036;53.224;6.554;2023-04-01T23:04:56;8.90;;;3.73;;
72895;SDS011;61036;53.224;6.554;2023-04-01T23:10:42;10.60;;;3.13;;
72895;SDS011;61036;53.224;6.554;2023-04-01T23:13:18;10.17;;;3.63;;
72895;SDS011;61036;53.224;6.554;2023-04-01T23:15:50;9.17;;;3.57;;
72895;SDS011;61036;53.224;6.554;2023-04-01T23:26:52;8.93;;;3.67;;
72895;SDS011;61036;53.224;6.554;2023-04-01T23:29:24;6.97;;;3.70;;
72895;SDS011;61036;53.224;6.554;2023-04-01T23:31:58;7.63;;;3.17;;
72895;SDS011;61036;53.224;6.554;2023-04-01T23:34:30;8.17;;;3.23;;
72895;SDS011;61036;53.224;6.554;2023-04-01T23:36:58;7.13;;;3.17;;
72895;SDS011;61036;53.224;6.554;2023-04-01T23:39:35;14.90;;;3.97;;
72895;SDS011;61036;53.224;6.554;2023-04-01T23:42:24;7.93;;;3.10;;
72895;SDS011;61036;53.224;6.554;2023-04-01T23:44:55;10.37;;;3.37;;
72895;SDS011;61036;53.224;6.554;2023-04-01T23:47:44;8.37;;;3.53;;
72895;SDS011;61036;53.224;6.554;2023-04-01T23:55:41;8.97;;;3.67;;
72895;SDS011;61036;53.224;6.554;2023-04-01T23:58:13;6.93;;;3.20;;
